createdAt,value
2018-05-08T00:00:15.709Z,6.10
2018-05-08T00:02:45.585Z,6.77
2018-05-08T00:05:11.748Z,6.27
2018-05-08T00:07:37.818Z,6.47
2018-05-08T00:10:04.920Z,6.13
2018-05-08T00:12:32.262Z,6.10
2018-05-08T00:14:59.366Z,5.97
2018-05-08T00:17:27.442Z,6.47
2018-05-08T00:19:54.628Z,6.40
2018-05-08T00:22:21.424Z,6.53
2018-05-08T00:24:47.477Z,6.17
2018-05-08T00:27:13.951Z,6.47
2018-05-08T00:29:40.059Z,6.47
2018-05-08T00:32:07.100Z,6.90
2018-05-08T00:34:35.220Z,6.43
2018-05-08T00:37:02.288Z,6.00
2018-05-08T00:39:28.344Z,6.57
2018-05-08T00:41:56.121Z,7.10
2018-05-08T00:44:22.948Z,6.80
2018-05-08T00:46:49.809Z,6.10
2018-05-08T00:49:16.627Z,6.23
2018-05-08T00:51:42.740Z,6.40
2018-05-08T00:54:08.902Z,6.57
2018-05-08T00:56:35.927Z,5.80
2018-05-08T00:59:02.020Z,6.30
2018-05-08T01:01:29.091Z,6.10
2018-05-08T01:03:56.940Z,7.13
2018-05-08T01:06:22.983Z,6.53
2018-05-08T01:08:49.136Z,6.30
2018-05-08T01:11:15.283Z,6.30
2018-05-08T01:13:41.371Z,6.97
2018-05-08T01:16:07.439Z,6.03
2018-05-08T01:18:35.593Z,6.43
2018-05-08T01:21:02.455Z,7.00
2018-05-08T01:23:28.533Z,6.67
2018-05-08T01:25:54.595Z,6.63
2018-05-08T01:28:20.656Z,6.67
2018-05-08T01:30:46.910Z,6.47
2018-05-08T01:33:13.076Z,6.63
2018-05-08T01:35:39.101Z,6.30
2018-05-08T01:38:08.047Z,6.77
2018-05-08T01:40:34.830Z,6.50
2018-05-08T01:43:01.652Z,6.57
2018-05-08T01:45:28.449Z,6.73
2018-05-08T01:47:54.519Z,6.57
2018-05-08T01:50:20.597Z,6.33
2018-05-08T01:52:46.780Z,6.33
2018-05-08T01:55:13.609Z,6.70
2018-05-08T01:57:39.692Z,7.23
2018-05-08T02:00:05.784Z,6.07
2018-05-08T02:02:32.564Z,6.77
2018-05-08T02:04:58.747Z,6.60
2018-05-08T02:07:25.571Z,6.47
2018-05-08T02:09:51.802Z,6.80
2018-05-08T02:12:18.881Z,6.90
2018-05-08T02:14:44.978Z,7.10
2018-05-08T02:17:11.037Z,6.97
2018-05-08T02:19:37.101Z,6.47
2018-05-08T02:22:03.442Z,6.47
2018-05-08T02:24:29.623Z,7.17
2018-05-08T02:26:55.748Z,6.43
2018-05-08T02:29:21.858Z,6.97
2018-05-08T02:31:48.643Z,6.27
2018-05-08T02:34:14.728Z,7.17
2018-05-08T02:36:42.617Z,6.87
2018-05-08T02:39:13.617Z,6.23
2018-05-08T02:41:40.407Z,7.00
2018-05-08T02:44:07.544Z,7.07
2018-05-08T02:46:33.691Z,6.67
2018-05-08T02:49:03.769Z,6.67
2018-05-08T02:51:30.547Z,6.50
2018-05-08T02:54:00.345Z,6.63
2018-05-08T02:56:26.400Z,6.37
2018-05-08T02:58:53.508Z,6.57
2018-05-08T03:01:22.402Z,6.27
2018-05-08T03:03:49.532Z,6.20
2018-05-08T03:06:20.523Z,6.00
2018-05-08T03:08:46.574Z,6.60
2018-05-08T03:11:12.618Z,6.43
2018-05-08T03:13:41.568Z,6.30
2018-05-08T03:16:09.730Z,7.97
2018-05-08T03:18:36.872Z,6.43
2018-05-08T03:21:04.019Z,7.00
2018-05-08T03:23:30.099Z,6.90
2018-05-08T03:25:57.045Z,6.90
2018-05-08T03:28:26.870Z,6.57
2018-05-08T03:30:54.821Z,7.50
2018-05-08T03:33:21.695Z,7.13
2018-05-08T03:35:48.499Z,7.80
2018-05-08T03:38:18.878Z,6.77
2018-05-08T03:40:46.110Z,7.00
2018-05-08T03:43:12.260Z,6.77
2018-05-08T03:45:38.307Z,6.27
2018-05-08T03:48:04.494Z,6.43
2018-05-08T03:50:36.069Z,5.77
2018-05-08T03:53:02.163Z,6.57
2018-05-08T03:55:31.079Z,6.30
2018-05-08T03:57:57.125Z,7.20
2018-05-08T04:00:35.479Z,6.97
2018-05-08T04:03:15.945Z,6.40
2018-05-08T04:05:54.895Z,6.80
2018-05-08T04:08:33.172Z,6.77
2018-05-08T04:10:59.332Z,5.87
2018-05-08T04:13:28.269Z,6.57
2018-05-08T04:15:54.373Z,6.10
2018-05-08T04:18:21.511Z,6.30
2018-05-08T04:20:47.557Z,6.40
2018-05-08T04:23:14.616Z,6.57
2018-05-08T04:25:40.770Z,5.67
2018-05-08T04:28:07.544Z,6.23
2018-05-08T04:30:33.635Z,6.50
2018-05-08T04:33:00.446Z,6.57
2018-05-08T04:35:27.497Z,6.43
2018-05-08T04:37:53.556Z,6.07
2018-05-08T04:40:20.431Z,5.93
2018-05-08T04:42:47.231Z,5.57
2018-05-08T04:45:13.383Z,5.93
2018-05-08T04:47:42.214Z,5.70
2018-05-08T04:50:08.243Z,5.43
2018-05-08T04:52:34.396Z,5.87
2018-05-08T04:55:00.573Z,5.90
2018-05-08T04:57:30.878Z,5.83
2018-05-08T04:59:57.679Z,5.70
2018-05-08T05:02:26.965Z,6.07
2018-05-08T05:04:56.463Z,5.30
2018-05-08T05:07:22.551Z,5.20
2018-05-08T05:09:49.391Z,5.03
2018-05-08T05:12:16.146Z,4.73
2018-05-08T05:14:42.327Z,5.17
2018-05-08T05:17:08.498Z,5.03
2018-05-08T05:19:38.831Z,4.83
2018-05-08T05:22:04.900Z,4.67
2018-05-08T05:24:32.082Z,4.77
2018-05-08T05:26:58.112Z,5.27
2018-05-08T05:29:24.891Z,4.40
2018-05-08T05:31:51.048Z,4.90
2018-05-08T05:34:17.135Z,5.30
2018-05-08T05:36:46.924Z,4.67
2018-05-08T05:39:14.819Z,4.70
2018-05-08T05:41:40.925Z,4.70
2018-05-08T05:44:08.009Z,4.67
2018-05-08T05:46:35.085Z,4.40
2018-05-08T05:49:01.170Z,4.90
2018-05-08T05:51:27.283Z,4.90
2018-05-08T05:53:54.080Z,4.70
2018-05-08T05:56:20.141Z,4.20
2018-05-08T05:58:46.308Z,4.50
2018-05-08T06:01:12.395Z,4.60
2018-05-08T06:03:39.182Z,4.25
2018-05-08T06:06:07.357Z,4.77
2018-05-08T06:08:33.568Z,4.40
2018-05-08T06:10:59.697Z,4.70
2018-05-08T06:13:26.795Z,5.07
2018-05-08T06:15:53.043Z,4.60
2018-05-08T06:18:19.971Z,4.45
2018-05-08T06:20:46.825Z,4.78
2018-05-08T06:23:12.963Z,4.50
2018-05-08T06:25:41.030Z,4.50
2018-05-08T06:28:08.119Z,4.18
2018-05-08T06:30:39.853Z,4.50
2018-05-08T06:33:05.920Z,4.60
2018-05-08T06:35:32.116Z,4.10
2018-05-08T06:37:58.186Z,4.07
2018-05-08T06:40:27.979Z,4.15
2018-05-08T06:42:54.297Z,4.47
2018-05-08T06:45:21.399Z,4.60
2018-05-08T06:47:47.580Z,3.75
2018-05-08T06:50:13.658Z,4.18
2018-05-08T06:52:40.497Z,4.07
2018-05-08T06:55:07.388Z,3.80
2018-05-08T06:57:33.568Z,3.85
2018-05-08T07:00:00.460Z,4.20
2018-05-08T07:02:26.584Z,3.78
2018-05-08T07:04:52.702Z,3.53
2018-05-08T07:07:18.780Z,3.78
2018-05-08T07:09:46.713Z,4.18
2018-05-08T07:12:12.922Z,4.00
2018-05-08T07:14:41.100Z,3.45
2018-05-08T07:17:07.268Z,4.00
2018-05-08T07:19:34.401Z,3.58
2018-05-08T07:22:00.697Z,4.00
2018-05-08T07:24:27.543Z,3.60
2018-05-08T07:26:54.618Z,3.47
2018-05-08T07:29:21.694Z,3.67
2018-05-08T07:31:48.804Z,3.40
2018-05-08T07:34:16.899Z,2.97
2018-05-08T07:36:43.102Z,3.60
2018-05-08T07:39:09.195Z,3.37
2018-05-08T07:41:39.909Z,3.08
2018-05-08T07:44:06.779Z,3.10
2018-05-08T07:46:33.132Z,3.20
2018-05-08T07:48:59.382Z,3.35
2018-05-08T07:51:26.863Z,3.10
2018-05-08T07:53:52.998Z,3.00
2018-05-08T07:56:19.856Z,3.15
2018-05-08T07:58:45.977Z,3.10
2018-05-08T08:01:12.853Z,3.20
2018-05-08T08:03:38.982Z,2.90
2018-05-08T08:06:05.121Z,2.97
2018-05-08T08:08:32.071Z,3.40
2018-05-08T08:10:58.447Z,3.12
2018-05-08T08:13:26.337Z,2.50
2018-05-08T08:15:52.461Z,3.00
2018-05-08T08:18:19.473Z,3.05
2018-05-08T08:20:45.516Z,3.05
2018-05-08T08:23:12.547Z,3.10
2018-05-08T08:25:38.598Z,3.12
2018-05-08T08:28:05.526Z,2.87
2018-05-08T08:30:32.956Z,2.40
2018-05-08T08:32:59.065Z,3.00
2018-05-08T08:35:26.213Z,3.10
2018-05-08T08:37:56.216Z,2.97
2018-05-08T08:40:26.840Z,3.22
2018-05-08T08:42:52.910Z,2.92
2018-05-08T08:45:19.030Z,2.90
2018-05-08T08:47:46.471Z,3.33
2018-05-08T08:50:15.755Z,3.28
2018-05-08T08:52:41.942Z,2.55
2018-05-08T08:55:08.737Z,2.97
2018-05-08T08:57:34.813Z,2.50
2018-05-08T09:00:01.956Z,2.67
2018-05-08T09:02:30.767Z,2.60
2018-05-08T09:04:57.553Z,2.42
2018-05-08T09:07:23.657Z,2.53
2018-05-08T09:09:54.248Z,2.42
2018-05-08T09:12:20.311Z,1.98
2018-05-08T09:14:46.540Z,2.33
2018-05-08T09:17:14.814Z,2.30
2018-05-08T09:19:41.005Z,2.33
2018-05-08T09:22:07.088Z,2.28
2018-05-08T09:24:34.263Z,2.60
2018-05-08T09:27:01.099Z,2.53
2018-05-08T09:29:28.970Z,2.17
2018-05-08T09:31:55.094Z,2.25
2018-05-08T09:34:22.756Z,2.08
2018-05-08T09:36:49.667Z,2.20
2018-05-08T09:39:15.831Z,2.25
2018-05-08T09:41:42.831Z,2.30
2018-05-08T09:44:08.987Z,2.20
2018-05-08T09:46:35.144Z,2.08
2018-05-08T09:49:02.152Z,2.08
2018-05-08T09:51:31.462Z,2.20
2018-05-08T09:53:57.784Z,2.08
2018-05-08T09:56:23.899Z,1.90
2018-05-08T09:58:49.994Z,1.80
2018-05-08T10:01:17.368Z,1.92
2018-05-08T10:03:44.546Z,1.80
2018-05-08T10:06:11.713Z,1.83
2018-05-08T10:08:37.869Z,1.70
2018-05-08T10:11:04.730Z,1.87
2018-05-08T10:13:34.626Z,2.08
2018-05-08T10:16:01.524Z,1.80
2018-05-08T10:18:27.706Z,2.47
2018-05-08T10:20:54.582Z,1.80
2018-05-08T10:23:22.755Z,2.40
2018-05-08T10:25:50.015Z,1.92
2018-05-08T10:28:18.185Z,2.20
2018-05-08T10:30:44.504Z,1.90
2018-05-08T10:33:11.664Z,1.92
2018-05-08T10:35:38.479Z,2.00
2018-05-08T10:38:06.369Z,1.60
2018-05-08T10:40:32.598Z,1.80
2018-05-08T10:42:59.946Z,2.00
2018-05-08T10:45:26.267Z,2.03
2018-05-08T10:47:53.128Z,1.90
2018-05-08T10:50:19.247Z,2.20
2018-05-08T10:52:45.682Z,1.87
2018-05-08T10:55:11.857Z,2.45
2018-05-08T10:57:37.952Z,1.80
2018-05-08T11:00:05.268Z,1.95
2018-05-08T11:02:31.449Z,2.03
2018-05-08T11:04:58.592Z,1.80
2018-05-08T11:07:24.655Z,1.73
2018-05-08T11:09:51.523Z,1.83
2018-05-08T11:12:19.621Z,1.58
2018-05-08T11:14:46.659Z,1.90
2018-05-08T11:17:13.792Z,1.73
2018-05-08T11:19:39.951Z,1.80
2018-05-08T11:22:07.093Z,1.90
2018-05-08T11:24:33.245Z,1.70
2018-05-08T11:26:59.438Z,1.60
2018-05-08T11:29:25.524Z,1.73
2018-05-08T11:31:52.819Z,1.83
2018-05-08T11:34:18.946Z,1.85
2018-05-08T11:36:46.978Z,1.58
2018-05-08T11:39:14.322Z,1.80
2018-05-08T11:41:40.620Z,1.70
2018-05-08T11:44:10.383Z,1.95
2018-05-08T11:46:37.305Z,1.60
2018-05-08T11:49:03.400Z,1.80
2018-05-08T11:51:29.607Z,1.55
2018-05-08T11:53:56.779Z,1.62
2018-05-08T11:56:22.896Z,1.90
2018-05-08T11:58:49.198Z,1.62
2018-05-08T12:01:16.393Z,1.60
2018-05-08T12:03:42.476Z,1.92
2018-05-08T12:06:10.002Z,2.00
2018-05-08T12:08:41.650Z,1.70
2018-05-08T12:11:07.936Z,2.30
2018-05-08T12:13:34.068Z,1.80
2018-05-08T12:16:00.486Z,1.90
2018-05-08T12:18:26.774Z,1.83
2018-05-08T12:20:55.332Z,2.00
2018-05-08T12:23:22.441Z,1.90
2018-05-08T12:25:48.753Z,1.50
2018-05-08T12:28:15.141Z,1.80
2018-05-08T12:30:42.584Z,1.87
2018-05-08T12:33:08.852Z,1.87
2018-05-08T12:35:35.355Z,1.73
2018-05-08T12:38:03.344Z,1.90
2018-05-08T12:40:30.540Z,1.48
2018-05-08T12:42:58.862Z,1.90
2018-05-08T12:45:24.879Z,1.60
2018-05-08T12:47:50.922Z,1.80
2018-05-08T12:50:16.985Z,1.50
2018-05-08T12:52:43.762Z,1.70
2018-05-08T12:55:09.873Z,1.40
2018-05-08T12:57:36.670Z,1.65
2018-05-08T13:00:02.847Z,1.50
2018-05-08T13:02:29.965Z,1.95
2018-05-08T13:04:58.931Z,1.60
2018-05-08T13:07:24.962Z,1.62
2018-05-08T13:09:52.038Z,1.70
2018-05-08T13:12:18.819Z,1.48
2018-05-08T13:14:46.005Z,1.92
2018-05-08T13:17:14.416Z,1.70
2018-05-08T13:19:42.336Z,1.90
2018-05-08T13:22:09.327Z,1.50
2018-05-08T13:24:36.540Z,1.50
2018-05-08T13:27:02.735Z,2.10
2018-05-08T13:29:28.802Z,1.58
2018-05-08T13:31:54.999Z,1.52
2018-05-08T13:34:22.908Z,1.70
2018-05-08T13:36:49.000Z,1.83
2018-05-08T13:39:15.053Z,1.83
2018-05-08T13:41:41.111Z,1.65
2018-05-08T13:44:08.897Z,1.52
2018-05-08T13:46:34.985Z,1.80
2018-05-08T13:49:02.031Z,1.50
2018-05-08T13:51:28.189Z,1.80
2018-05-08T13:53:54.380Z,1.70
2018-05-08T13:56:20.464Z,1.95
2018-05-08T13:58:47.667Z,1.48
2018-05-08T14:01:15.540Z,1.45
2018-05-08T14:03:43.391Z,1.70
2018-05-08T14:06:09.599Z,1.83
2018-05-08T14:08:35.696Z,1.50
2018-05-08T14:11:03.771Z,1.50
2018-05-08T14:13:29.895Z,1.45
2018-05-08T14:15:55.991Z,1.30
2018-05-08T14:18:23.866Z,1.35
2018-05-08T14:20:49.938Z,1.48
2018-05-08T14:23:16.079Z,1.70
2018-05-08T14:25:47.187Z,1.40
2018-05-08T14:28:13.332Z,5.05
2018-05-08T14:30:39.513Z,1.50
2018-05-08T14:33:06.444Z,1.40
2018-05-08T14:35:34.369Z,1.45
2018-05-08T14:38:03.366Z,1.65
2018-05-08T14:40:30.538Z,1.62
2018-05-08T14:42:56.825Z,1.65
2018-05-08T14:45:23.106Z,1.42
2018-05-08T14:47:49.288Z,1.70
2018-05-08T14:50:15.579Z,1.62
2018-05-08T14:52:42.601Z,1.40
2018-05-08T14:55:13.906Z,2.00
2018-05-08T14:57:40.085Z,1.50
2018-05-08T15:00:06.203Z,1.37
2018-05-08T15:02:33.266Z,1.42
2018-05-08T15:05:00.175Z,1.87
2018-05-08T15:07:26.301Z,1.45
2018-05-08T15:09:52.403Z,1.55
2018-05-08T15:12:19.643Z,1.58
2018-05-08T15:14:45.818Z,1.40
2018-05-08T15:17:13.856Z,1.50
2018-05-08T15:19:40.001Z,1.55
2018-05-08T15:22:06.142Z,1.20
2018-05-08T15:24:33.322Z,1.70
2018-05-08T15:27:01.123Z,1.33
2018-05-08T15:29:30.121Z,1.80
2018-05-08T15:31:57.340Z,1.90
2018-05-08T15:34:25.241Z,1.60
2018-05-08T15:36:52.322Z,1.50
2018-05-08T15:39:18.501Z,2.05
2018-05-08T15:41:44.839Z,1.35
2018-05-08T15:44:11.942Z,1.30
2018-05-08T15:46:39.193Z,1.60
2018-05-08T15:49:06.112Z,1.70
2018-05-08T15:51:32.220Z,1.55
2018-05-08T15:53:58.496Z,1.40
2018-05-08T15:56:26.169Z,1.48
2018-05-08T15:58:52.275Z,1.60
2018-05-08T16:01:18.359Z,1.42
2018-05-08T16:03:44.696Z,1.37
2018-05-08T16:06:10.782Z,1.33
2018-05-08T16:08:37.861Z,1.80
2018-05-08T16:11:03.999Z,1.30
2018-05-08T16:13:35.935Z,1.40
2018-05-08T16:16:02.039Z,1.62
2018-05-08T16:18:28.188Z,1.83
2018-05-08T16:20:56.346Z,1.60
2018-05-08T16:23:22.404Z,1.80
2018-05-08T16:25:48.531Z,1.67
2018-05-08T16:28:14.574Z,2.10
2018-05-08T16:30:44.315Z,1.70
2018-05-08T16:33:12.375Z,1.60
2018-05-08T16:35:38.514Z,2.00
2018-05-08T16:38:04.613Z,1.80
2018-05-08T16:40:30.864Z,1.42
2018-05-08T16:42:58.088Z,1.60
2018-05-08T16:45:24.956Z,1.48
2018-05-08T16:47:51.514Z,1.80
2018-05-08T16:50:17.684Z,1.85
2018-05-08T16:52:45.771Z,1.62
2018-05-08T16:55:13.973Z,1.75
2018-05-08T16:57:40.133Z,1.67
2018-05-08T17:00:06.207Z,1.30
2018-05-08T17:02:33.700Z,1.60
2018-05-08T17:04:59.947Z,1.67
2018-05-08T17:07:26.798Z,1.70
2018-05-08T17:09:53.738Z,1.55
2018-05-08T17:12:20.544Z,1.70
2018-05-08T17:14:46.771Z,1.48
2018-05-08T17:17:12.883Z,1.77
2018-05-08T17:19:38.961Z,1.90
2018-05-08T17:22:05.761Z,1.60
2018-05-08T17:24:32.997Z,1.90
2018-05-08T17:26:59.205Z,1.60
2018-05-08T17:29:25.288Z,1.80
2018-05-08T17:31:51.663Z,2.03
2018-05-08T17:34:18.829Z,1.80
2018-05-08T17:36:46.000Z,1.50
2018-05-08T17:39:12.269Z,1.75
2018-05-08T17:41:39.178Z,1.62
2018-05-08T17:44:05.244Z,1.65
2018-05-08T17:46:35.318Z,2.10
2018-05-08T17:49:04.703Z,1.60
2018-05-08T17:51:30.824Z,1.60
2018-05-08T17:53:57.966Z,1.70
2018-05-08T17:56:24.143Z,1.67
2018-05-08T17:58:50.314Z,1.70
2018-05-08T18:01:16.356Z,1.70
2018-05-08T18:03:42.402Z,2.00
2018-05-08T18:06:08.485Z,2.87
2018-05-08T18:08:34.982Z,4.30
2018-05-08T18:11:01.180Z,2.78
2018-05-08T18:13:28.171Z,5.62
2018-05-08T18:16:00.692Z,1.90
2018-05-08T18:18:32.530Z,2.85
2018-05-08T18:21:04.499Z,2.20
2018-05-08T18:23:43.454Z,1.85
2018-05-08T18:26:17.159Z,1.77
2018-05-08T18:28:48.408Z,1.98
2018-05-08T18:31:22.439Z,2.00
2018-05-08T18:33:48.860Z,1.62
2018-05-08T18:36:14.940Z,1.77
2018-05-08T18:38:43.091Z,1.70
2018-05-08T18:41:13.723Z,2.03
2018-05-08T18:43:46.410Z,1.60
2018-05-08T18:46:14.208Z,1.70
2018-05-08T18:48:41.237Z,1.90
2018-05-08T18:51:07.285Z,1.90
2018-05-08T18:53:33.349Z,1.92
2018-05-08T18:55:59.379Z,2.00
2018-05-08T18:58:25.440Z,1.83
2018-05-08T19:00:54.246Z,1.87
2018-05-08T19:03:21.075Z,1.98
2018-05-08T19:05:48.258Z,1.90
2018-05-08T19:08:15.379Z,2.28
2018-05-08T19:10:41.391Z,1.70
2018-05-08T19:13:13.054Z,1.83
2018-05-08T19:15:46.265Z,2.00
2018-05-08T19:18:13.101Z,2.10
2018-05-08T19:20:39.870Z,2.03
2018-05-08T19:23:05.985Z,2.12
2018-05-08T19:25:34.034Z,2.12
2018-05-08T19:28:07.093Z,2.00
2018-05-08T19:30:33.250Z,2.10
2018-05-08T19:33:00.022Z,2.65
2018-05-08T19:35:32.270Z,2.30
2018-05-08T19:38:03.442Z,2.13
2018-05-08T19:40:29.527Z,2.40
2018-05-08T19:43:00.276Z,2.07
2018-05-08T19:45:28.400Z,2.13
2018-05-08T19:47:54.492Z,2.15
2018-05-08T19:50:20.604Z,2.33
2018-05-08T19:52:47.417Z,2.08
2018-05-08T19:55:13.476Z,2.23
2018-05-08T19:57:39.515Z,2.50
2018-05-08T20:00:05.545Z,2.10
2018-05-08T20:02:31.651Z,1.70
2018-05-08T20:04:57.822Z,2.00
2018-05-08T20:07:27.242Z,2.03
2018-05-08T20:09:53.540Z,1.90
2018-05-08T20:12:19.619Z,2.10
2018-05-08T20:14:47.572Z,2.22
2018-05-08T20:17:15.719Z,2.22
2018-05-08T20:19:42.970Z,2.03
2018-05-08T20:22:15.632Z,2.13
2018-05-08T20:24:43.827Z,2.00
2018-05-08T20:27:14.562Z,2.27
2018-05-08T20:29:40.703Z,2.10
2018-05-08T20:32:10.411Z,2.03
2018-05-08T20:34:36.459Z,1.90
2018-05-08T20:37:03.265Z,2.17
2018-05-08T20:39:29.351Z,2.27
2018-05-08T20:41:55.500Z,2.20
2018-05-08T20:44:21.622Z,2.03
2018-05-08T20:46:47.737Z,2.40
2018-05-08T20:49:13.955Z,2.20
2018-05-08T20:51:39.996Z,2.10
2018-05-08T20:54:06.248Z,2.20
2018-05-08T20:56:32.408Z,2.33
2018-05-08T20:58:58.493Z,2.23
2018-05-08T21:01:28.187Z,2.00
2018-05-08T21:03:54.518Z,2.10
2018-05-08T21:06:21.679Z,2.40
2018-05-08T21:08:47.832Z,2.23
2018-05-08T21:11:13.964Z,2.20
2018-05-08T21:13:40.034Z,2.33
2018-05-08T21:16:08.142Z,2.10
2018-05-08T21:18:36.056Z,2.20
2018-05-08T21:21:02.889Z,2.07
2018-05-08T21:23:29.975Z,2.17
2018-05-08T21:25:56.061Z,2.00
2018-05-08T21:28:28.174Z,2.30
2018-05-08T21:31:01.376Z,2.10
2018-05-08T21:33:27.792Z,2.20
2018-05-08T21:35:54.717Z,2.00
2018-05-08T21:38:21.823Z,2.40
2018-05-08T21:40:47.942Z,1.90
2018-05-08T21:43:14.003Z,1.90
2018-05-08T21:45:40.508Z,2.40
2018-05-08T21:48:06.637Z,2.53
2018-05-08T21:50:35.968Z,2.43
2018-05-08T21:53:04.178Z,2.70
2018-05-08T21:55:30.288Z,2.40
2018-05-08T21:57:58.109Z,2.83
2018-05-08T22:00:25.155Z,2.20
2018-05-08T22:02:51.220Z,2.27
2018-05-08T22:05:18.026Z,2.47
2018-05-08T22:07:45.143Z,2.40
2018-05-08T22:10:11.187Z,2.43
2018-05-08T22:12:38.115Z,2.30
2018-05-08T22:15:04.222Z,2.40
2018-05-08T22:17:31.252Z,2.60
2018-05-08T22:19:58.231Z,2.80
2018-05-08T22:22:24.350Z,2.50
2018-05-08T22:24:50.441Z,2.70
2018-05-08T22:27:17.694Z,2.80
2018-05-08T22:29:44.647Z,2.60
2018-05-08T22:32:11.558Z,3.03
2018-05-08T22:34:42.856Z,3.37
2018-05-08T22:37:09.965Z,2.90
2018-05-08T22:39:37.040Z,2.73
2018-05-08T22:42:03.874Z,2.67
2018-05-08T22:44:31.968Z,2.90
2018-05-08T22:46:58.778Z,3.20
2018-05-08T22:49:27.037Z,2.67
2018-05-08T22:51:53.128Z,2.87
2018-05-08T22:54:19.244Z,3.00
2018-05-08T22:56:46.100Z,2.87
2018-05-08T22:59:16.099Z,2.97
2018-05-08T23:01:43.243Z,3.13
2018-05-08T23:04:11.351Z,3.13
2018-05-08T23:06:37.521Z,3.07
2018-05-08T23:09:04.676Z,3.00
2018-05-08T23:11:31.796Z,3.10
2018-05-08T23:13:58.921Z,3.53
2018-05-08T23:16:25.090Z,3.00
2018-05-08T23:18:52.260Z,3.33
2018-05-08T23:21:18.505Z,3.07
2018-05-08T23:23:44.710Z,3.00
2018-05-08T23:26:11.568Z,2.63
2018-05-08T23:28:38.465Z,3.00
2018-05-08T23:31:04.630Z,2.77
2018-05-08T23:33:31.494Z,3.07
2018-05-08T23:35:58.458Z,3.50
2018-05-08T23:38:25.499Z,3.40
2018-05-08T23:40:51.741Z,3.20
2018-05-08T23:43:18.683Z,3.60
2018-05-08T23:45:45.609Z,3.10
2018-05-08T23:48:11.728Z,2.77
2018-05-08T23:50:39.546Z,3.17
2018-05-08T23:53:05.768Z,3.30
2018-05-08T23:55:33.620Z,2.93
2018-05-08T23:57:59.749Z,3.27
